Time;durP1;ratioP1;P1;durP2;ratioP2;P2;SDS_P1;SDS_P2;PMS_P1;PMS_P2;Temp;Humidity;BMP_temperature;BMP_pressure;BME280_temperature;BME280_humidity;BME280_pressure;Samples;Min_cycle;Max_cycle;Signal;HPM_P1;HPM_P2
2022/05/14 00:00:25;;;;;;;14.53;13.40;;;10.30;99.90;;;;;;5038097;28;20865;-67
2022/05/14 00:02:52;;;;;;;17.20;13.30;;;10.40;99.90;;;;;;5036574;28;20491;-69
2022/05/14 00:05:21;;;;;;;14.63;13.73;;;10.30;99.90;;;;;;5039436;28;20837;-68
2022/05/14 00:07:50;;;;;;;13.40;12.50;;;10.40;99.90;;;;;;5036701;28;20463;-68
2022/05/14 00:10:19;;;;;;;16.07;14.23;;;10.30;99.90;;;;;;5029771;28;20474;-68
2022/05/14 00:15:31;;;;;;;17.53;13.40;;;10.60;99.90;;;;;;5036760;28;20453;-68
2022/05/14 00:17:59;;;;;;;13.90;12.60;;;10.80;99.90;;;;;;5038607;28;20471;-68
2022/05/14 00:20:26;;;;;;;15.30;13.30;;;10.80;99.90;;;;;;5031573;28;20513;-68
2022/05/14 00:22:53;;;;;;;14.93;13.17;;;10.90;99.90;;;;;;5033052;28;20489;-67
2022/05/14 00:25:22;;;;;;;14.63;11.60;;;11.00;99.90;;;;;;5035938;28;20529;-68
2022/05/14 00:27:49;;;;;;;13.20;11.90;;;11.00;99.90;;;;;;5028574;28;20623;-68
2022/05/14 00:30:19;;;;;;;13.80;12.80;;;10.90;99.90;;;;;;5037374;28;20529;-68
2022/05/14 00:32:47;;;;;;;14.87;13.37;;;10.80;99.90;;;;;;5036077;28;20475;-68
2022/05/14 00:35:15;;;;;;;14.40;13.27;;;10.70;99.90;;;;;;5035569;28;20570;-69
2022/05/14 00:37:42;;;;;;;14.30;13.20;;;10.60;99.90;;;;;;5030197;28;20519;-68
2022/05/14 00:40:14;;;;;;;14.70;13.60;;;10.50;99.90;;;;;;5033160;28;20457;-68
2022/05/14 00:42:43;;;;;;;14.57;13.27;;;10.40;99.90;;;;;;5038010;28;20492;-68
2022/05/14 00:45:13;;;;;;;16.20;14.13;;;10.40;99.90;;;;;;5035786;28;20872;-69
2022/05/14 00:47:43;;;;;;;16.47;14.93;;;10.40;99.90;;;;;;5034832;28;20468;-68
2022/05/14 00:50:16;;;;;;;17.40;13.53;;;10.30;99.90;;;;;;5034380;28;20470;-68
2022/05/14 00:52:45;;;;;;;15.63;14.13;;;10.30;99.90;;;;;;5027154;28;20464;-68
2022/05/14 00:55:12;;;;;;;14.83;13.63;;;10.30;99.90;;;;;;5042606;28;20902;-69
2022/05/14 00:57:44;;;;;;;15.40;13.80;;;10.30;99.90;;;;;;5033712;28;20522;-69
2022/05/14 01:00:16;;;;;;;17.83;13.80;;;10.30;99.90;;;;;;5033885;28;20456;-69
2022/05/14 01:02:44;;;;;;;17.10;15.60;;;10.20;99.90;;;;;;5036145;28;20491;-68
2022/05/14 01:05:13;;;;;;;15.37;13.97;;;10.10;99.90;;;;;;5039788;28;20577;-69
2022/05/14 01:07:40;;;;;;;15.77;14.07;;;10.20;99.90;;;;;;5036294;28;20524;-69
2022/05/14 01:10:10;;;;;;;16.23;14.60;;;10.10;99.90;;;;;;5034728;28;20563;-69
2022/05/14 01:12:44;;;;;;;14.77;13.67;;;9.90;99.90;;;;;;5035619;28;20556;-69
2022/05/14 01:15:18;;;;;;;16.60;15.33;;;9.80;99.90;;;;;;5040448;28;20475;-68
2022/05/14 01:17:46;;;;;;;16.57;15.37;;;9.70;99.90;;;;;;5035861;28;20461;-68
2022/05/14 01:20:14;;;;;;;17.40;16.20;;;9.70;99.90;;;;;;5038722;28;20470;-69
2022/05/14 01:23:02;;;;;;;15.53;14.10;;;9.70;99.90;;;;;;5037592;28;20504;-69
2022/05/14 01:28:25;;;;;;;17.10;15.37;;;9.70;99.90;;;;;;5037150;28;21020;-69
2022/05/14 01:30:56;;;;;;;17.00;15.40;;;9.60;99.90;;;;;;5039932;28;20460;-69
2022/05/14 01:33:23;;;;;;;17.77;16.10;;;9.60;99.90;;;;;;5035561;28;20460;-68
2022/05/14 01:35:51;;;;;;;17.63;16.43;;;9.60;99.90;;;;;;5034305;28;20485;-69
2022/05/14 01:38:19;;;;;;;22.07;15.00;;;9.50;99.90;;;;;;5037620;28;20457;-69
2022/05/14 01:40:48;;;;;;;16.30;15.03;;;9.50;99.90;;;;;;5038437;28;20490;-68
2022/05/14 01:43:14;;;;;;;17.00;15.60;;;9.50;99.90;;;;;;5028556;28;20495;-69
2022/05/14 01:45:43;;;;;;;16.57;15.43;;;9.50;99.90;;;;;;5033156;28;20459;-68
2022/05/14 01:48:10;;;;;;;16.63;15.20;;;9.50;99.90;;;;;;5030175;28;20495;-69
2022/05/14 01:50:38;;;;;;;16.43;14.23;;;9.50;99.90;;;;;;5035785;28;20873;-68
2022/05/14 01:53:05;;;;;;;16.07;14.77;;;9.60;99.90;;;;;;5039897;28;20463;-68
2022/05/14 01:55:32;;;;;;;15.87;14.23;;;9.60;99.90;;;;;;5035797;28;21029;-69
2022/05/14 01:57:59;;;;;;;14.63;13.30;;;9.60;99.90;;;;;;5030201;28;20983;-69
2022/05/14 02:00:26;;;;;;;15.97;14.37;;;9.50;99.90;;;;;;5033619;28;20474;-68
2022/05/14 02:02:55;;;;;;;16.97;15.50;;;9.50;99.90;;;;;;5035660;28;20476;-68
2022/05/14 02:05:22;;;;;;;15.63;14.40;;;9.40;99.90;;;;;;5032311;28;20488;-69
2022/05/14 02:07:49;;;;;;;15.13;14.03;;;9.50;99.90;;;;;;5039217;28;20522;-69
2022/05/14 02:10:18;;;;;;;20.43;14.67;;;9.40;99.90;;;;;;5040641;28;20904;-68
2022/05/14 02:12:45;;;;;;;17.10;15.80;;;9.30;99.90;;;;;;5029677;28;20464;-68
2022/05/14 02:15:12;;;;;;;16.50;15.30;;;9.20;99.90;;;;;;5034439;28;20459;-68
2022/05/14 02:17:39;;;;;;;17.93;16.33;;;9.10;99.90;;;;;;5041495;28;20464;-69
2022/05/14 02:20:08;;;;;;;15.50;14.40;;;9.00;99.90;;;;;;5032593;28;20475;-69
2022/05/14 02:22:36;;;;;;;17.07;15.50;;;9.00;99.90;;;;;;5033151;28;20958;-69
2022/05/14 02:25:03;;;;;;;16.37;15.00;;;9.10;99.90;;;;;;5041598;28;20467;-68
2022/05/14 02:27:30;;;;;;;15.47;14.07;;;9.30;99.90;;;;;;5034569;28;20470;-68
2022/05/14 02:29:57;;;;;;;15.30;14.00;;;9.40;99.90;;;;;;5035219;28;20471;-68
2022/05/14 02:32:26;;;;;;;15.90;14.70;;;9.30;99.90;;;;;;5037238;28;20463;-68
2022/05/14 02:34:54;;;;;;;16.60;14.47;;;9.20;99.90;;;;;;5034997;28;20479;-67
2022/05/14 02:37:24;;;;;;;15.93;14.83;;;9.20;99.90;;;;;;5041719;28;20464;-69
2022/05/14 02:39:52;;;;;;;23.07;15.80;;;9.10;99.90;;;;;;5034734;28;20827;-68
2022/05/14 02:42:19;;;;;;;16.83;15.43;;;9.00;99.90;;;;;;5033344;28;20661;-69
2022/05/14 02:44:46;;;;;;;16.90;15.53;;;9.00;99.90;;;;;;5036528;28;20492;-68
2022/05/14 02:47:13;;;;;;;18.57;14.90;;;9.00;99.90;;;;;;5040897;28;20464;-68
2022/05/14 02:49:40;;;;;;;16.90;15.23;;;9.00;99.90;;;;;;5035515;28;20464;-69
2022/05/14 02:52:08;;;;;;;16.40;15.10;;;9.00;99.90;;;;;;5035435;28;21039;-68
2022/05/14 02:54:37;;;;;;;16.17;15.07;;;9.10;99.90;;;;;;5033753;28;20902;-68
2022/05/14 02:57:05;;;;;;;17.00;14.73;;;9.20;99.90;;;;;;5033942;28;21088;-68
2022/05/14 02:59:34;;;;;;;16.07;14.90;;;9.10;99.90;;;;;;5032532;28;20471;-69
2022/05/14 03:02:03;;;;;;;15.90;14.73;;;9.10;99.90;;;;;;5037845;28;20849;-68
2022/05/14 03:04:36;;;;;;;14.43;13.53;;;9.20;99.90;;;;;;4996192;28;1060812;-69
2022/05/14 03:07:06;;;;;;;16.13;14.47;;;9.20;99.90;;;;;;5041635;28;20535;-68
2022/05/14 03:09:36;;;;;;;16.13;15.03;;;9.20;99.90;;;;;;5037370;28;20965;-68
2022/05/14 03:12:05;;;;;;;15.77;14.63;;;9.20;99.90;;;;;;5033367;28;20565;-68
2022/05/14 03:14:33;;;;;;;15.43;14.23;;;9.20;99.90;;;;;;5035177;28;22386;-68
2022/05/14 03:17:00;;;;;;;14.80;13.70;;;9.10;99.90;;;;;;5040251;28;20970;-68
2022/05/14 03:19:27;;;;;;;15.57;14.37;;;9.00;99.90;;;;;;5036720;28;20738;-68
2022/05/14 03:21:55;;;;;;;15.13;13.87;;;9.00;99.90;;;;;;5034520;28;20986;-69
2022/05/14 03:24:22;;;;;;;15.37;14.20;;;9.00;99.90;;;;;;5031470;28;20533;-68
2022/05/14 03:26:52;;;;;;;15.90;14.37;;;9.00;99.90;;;;;;5037336;28;20472;-67
2022/05/14 03:29:20;;;;;;;16.27;14.83;;;9.00;99.90;;;;;;5031428;28;20462;-68
2022/05/14 03:31:47;;;;;;;15.10;13.73;;;9.00;99.90;;;;;;5030496;28;20464;-67
2022/05/14 03:34:17;;;;;;;14.83;13.73;;;9.00;99.90;;;;;;5034681;28;20459;-67
2022/05/14 03:36:44;;;;;;;15.07;14.07;;;9.00;99.90;;;;;;5033962;28;20521;-68
2022/05/14 03:39:11;;;;;;;16.80;15.50;;;9.00;99.90;;;;;;5037646;28;20471;-67
2022/05/14 03:41:38;;;;;;;17.20;14.87;;;9.10;99.90;;;;;;5032450;28;20567;-68
2022/05/14 03:44:07;;;;;;;16.10;14.80;;;9.10;99.90;;;;;;5040716;28;20487;-67
2022/05/14 03:46:35;;;;;;;17.33;14.53;;;9.00;99.90;;;;;;5040454;28;20560;-68
2022/05/14 03:49:02;;;;;;;15.40;14.30;;;9.00;99.90;;;;;;5037999;28;20537;-67
2022/05/14 03:51:30;;;;;;;14.73;13.60;;;9.10;99.90;;;;;;5035366;28;20497;-68
2022/05/14 03:53:56;;;;;;;16.87;15.13;;;9.00;99.90;;;;;;5036302;28;20461;-68
2022/05/14 03:56:24;;;;;;;15.80;14.37;;;8.80;99.90;;;;;;5032072;28;20466;-67
2022/05/14 03:58:51;;;;;;;15.17;13.80;;;8.70;99.90;;;;;;5027995;28;20463;-67
2022/05/14 04:01:20;;;;;;;16.00;14.40;;;8.70;99.90;;;;;;5031617;28;20496;-67
2022/05/14 04:03:47;;;;;;;16.00;14.47;;;8.80;99.90;;;;;;5004795;28;21263;-68
2022/05/14 04:06:14;;;;;;;17.63;14.60;;;8.80;99.90;;;;;;5007352;28;21113;-68
2022/05/14 04:08:41;;;;;;;15.20;14.00;;;8.70;99.90;;;;;;5007393;28;20504;-67
2022/05/14 04:11:08;;;;;;;19.37;16.00;;;8.80;99.90;;;;;;5007267;28;20471;-67
2022/05/14 04:13:35;;;;;;;15.37;14.20;;;8.80;99.90;;;;;;5004926;28;20466;-67
2022/05/14 04:16:02;;;;;;;15.63;14.10;;;8.80;99.90;;;;;;5005607;28;21009;-67
2022/05/14 04:18:30;;;;;;;14.90;14.00;;;8.80;99.90;;;;;;5006184;28;20741;-68
2022/05/14 04:20:59;;;;;;;15.17;14.00;;;8.90;99.90;;;;;;5007248;28;21061;-68
2022/05/14 04:23:29;;;;;;;13.93;12.93;;;8.90;99.90;;;;;;5004941;28;20984;-67
2022/05/14 04:25:57;;;;;;;15.33;14.20;;;8.90;99.90;;;;;;5005335;28;20517;-69
2022/05/14 04:28:25;;;;;;;15.17;13.90;;;8.90;99.90;;;;;;5006008;28;21115;-68
2022/05/14 04:30:52;;;;;;;13.97;12.73;;;9.00;99.90;;;;;;5007048;28;20590;-68
2022/05/14 04:33:20;;;;;;;14.80;13.50;;;8.90;99.90;;;;;;5004406;28;20823;-69
2022/05/14 04:35:49;;;;;;;14.50;13.13;;;9.00;99.90;;;;;;5006878;28;20475;-68
2022/05/14 04:38:16;;;;;;;15.07;13.40;;;9.10;99.90;;;;;;5006714;28;21088;-68
2022/05/14 04:40:44;;;;;;;13.40;12.20;;;9.20;99.90;;;;;;5005442;28;20537;-68
2022/05/14 04:43:12;;;;;;;14.40;13.20;;;9.10;99.90;;;;;;5005644;28;20674;-68
2022/05/14 04:45:43;;;;;;;14.63;13.40;;;9.10;99.90;;;;;;5004377;28;20800;-70
2022/05/14 04:48:11;;;;;;;13.30;12.20;;;9.10;99.90;;;;;;5006647;28;20488;-68
2022/05/14 04:50:38;;;;;;;13.60;12.50;;;9.00;99.90;;;;;;5006077;28;20474;-68
2022/05/14 04:53:07;;;;;;;14.17;13.00;;;9.00;99.90;;;;;;5006005;28;20471;-67
2022/05/14 04:55:34;;;;;;;13.70;12.80;;;8.90;99.90;;;;;;5006643;28;20459;-68
2022/05/14 04:58:01;;;;;;;14.33;13.13;;;8.90;99.90;;;;;;5005882;28;20479;-67
2022/05/14 05:00:28;;;;;;;16.13;12.37;;;8.90;99.90;;;;;;5006639;28;20460;-67
2022/05/14 05:05:39;;;;;;;13.90;12.40;;;9.10;99.90;;;;;;5005294;28;20557;-68
2022/05/14 05:08:07;;;;;;;18.30;12.03;;;9.20;99.90;;;;;;5006335;28;20463;-67
2022/05/14 05:10:34;;;;;;;13.30;11.90;;;9.30;99.90;;;;;;5007312;28;20506;-68
2022/05/14 05:13:02;;;;;;;11.80;10.80;;;9.40;99.90;;;;;;5004358;28;20464;-67
2022/05/14 05:15:29;;;;;;;12.20;11.17;;;9.50;99.90;;;;;;5005494;28;21069;-68
2022/05/14 05:17:56;;;;;;;12.33;11.40;;;9.50;99.90;;;;;;5005091;28;20990;-68
2022/05/14 05:20:23;;;;;;;13.20;11.17;;;9.60;99.90;;;;;;5007363;28;20477;-67
2022/05/14 05:22:50;;;;;;;12.30;11.10;;;9.70;99.90;;;;;;5006561;28;20788;-69
2022/05/14 05:25:19;;;;;;;12.90;11.67;;;9.80;99.90;;;;;;5004722;28;20492;-67
2022/05/14 05:27:46;;;;;;;11.27;10.37;;;10.00;99.90;;;;;;5006312;28;20473;-68
2022/05/14 05:30:19;;;;;;;16.53;11.40;;;10.10;99.90;;;;;;5006711;28;20468;-67
2022/05/14 05:32:46;;;;;;;12.33;11.40;;;10.20;99.90;;;;;;5005509;28;20461;-67
2022/05/14 05:35:13;;;;;;;13.50;10.70;;;10.30;99.90;;;;;;5006861;28;20469;-67
2022/05/14 05:37:40;;;;;;;12.60;11.57;;;10.30;99.90;;;;;;5006236;28;20833;-67
2022/05/14 05:40:08;;;;;;;11.90;10.90;;;10.40;99.90;;;;;;5006553;28;20586;-67
2022/05/14 05:42:36;;;;;;;12.10;10.90;;;10.60;99.90;;;;;;5005624;28;20457;-68
2022/05/14 05:45:04;;;;;;;12.47;11.40;;;10.70;99.90;;;;;;5003621;28;20491;-69
2022/05/14 05:47:31;;;;;;;12.73;11.53;;;10.80;99.90;;;;;;5008534;28;20459;-68
2022/05/14 05:49:57;;;;;;;12.07;11.27;;;11.00;99.90;;;;;;5009461;28;20777;-67
2022/05/14 05:52:24;;;;;;;11.83;10.97;;;11.00;99.90;;;;;;5009544;28;20467;-67
2022/05/14 05:57:39;;;;;;;13.20;12.00;;;11.20;99.90;;;;;;5010150;28;21045;-68
2022/05/14 06:00:09;;;;;;;12.80;11.90;;;11.40;99.90;;;;;;5009406;28;20465;-67
2022/05/14 06:02:37;;;;;;;12.90;12.03;;;11.50;99.90;;;;;;5030856;28;20491;-69
2022/05/14 06:05:05;;;;;;;15.37;12.57;;;11.70;99.90;;;;;;5035672;28;20487;-67
2022/05/14 06:07:32;;;;;;;14.93;13.63;;;11.70;99.90;;;;;;5031335;28;20463;-69
2022/05/14 06:09:59;;;;;;;15.20;13.60;;;11.90;99.90;;;;;;5029672;28;20472;-69
2022/05/14 06:12:26;;;;;;;15.07;12.80;;;12.10;99.90;;;;;;5006673;28;20460;-70
2022/05/14 06:14:54;;;;;;;14.03;12.40;;;12.20;99.90;;;;;;5005656;28;20852;-69
2022/05/14 06:17:21;;;;;;;14.20;13.07;;;12.20;99.90;;;;;;5006660;28;22342;-69
2022/05/14 06:19:48;;;;;;;15.63;13.50;;;12.30;99.90;;;;;;5006492;28;20468;-69
2022/05/14 06:22:15;;;;;;;14.07;12.97;;;12.50;99.90;;;;;;5006000;28;20449;-66
2022/05/14 06:24:42;;;;;;;28.13;14.00;;;12.50;99.90;;;;;;5007310;28;20480;-68
2022/05/14 06:27:09;;;;;;;14.83;13.50;;;12.60;99.90;;;;;;5006526;28;20471;-68
2022/05/14 06:29:36;;;;;;;14.50;13.10;;;12.70;99.90;;;;;;5007481;28;20469;-67
2022/05/14 06:32:05;;;;;;;23.07;14.30;;;12.70;99.90;;;;;;5006712;28;20460;-67
2022/05/14 06:34:32;;;;;;;16.67;15.10;;;12.90;99.90;;;;;;5023993;28;20838;-67
2022/05/14 06:36:59;;;;;;;16.43;13.87;;;12.90;99.90;;;;;;5043192;28;20476;-68
2022/05/14 06:39:27;;;;;;;16.20;13.97;;;13.00;99.90;;;;;;5008221;28;20465;-67
2022/05/14 06:41:54;;;;;;;15.47;14.07;;;13.10;99.90;;;;;;5007345;28;20447;-68
2022/05/14 06:44:21;;;;;;;18.73;15.17;;;13.10;99.90;;;;;;5006534;28;21290;-68
2022/05/14 06:46:48;;;;;;;14.87;13.50;;;13.10;99.90;;;;;;5006702;28;20457;-68
2022/05/14 06:49:17;;;;;;;16.23;14.90;;;13.30;99.90;;;;;;5016510;28;20641;-67
2022/05/14 06:51:44;;;;;;;16.00;14.27;;;13.30;99.90;;;;;;5033294;28;21076;-67
2022/05/14 06:54:12;;;;;;;19.50;15.50;;;13.40;99.90;;;;;;5006664;28;20476;-67
2022/05/14 06:56:41;;;;;;;24.93;14.30;;;13.50;99.90;;;;;;5007160;28;21279;-68
2022/05/14 06:59:09;;;;;;;18.83;15.27;;;13.70;99.90;;;;;;5005943;28;20478;-68
2022/05/14 07:01:39;;;;;;;22.23;14.97;;;13.70;99.90;;;;;;5006975;28;20495;-67
2022/05/14 07:06:55;;;;;;;16.33;14.70;;;13.90;99.90;;;;;;5006907;28;20849;-68
2022/05/14 07:09:26;;;;;;;18.90;15.40;;;13.90;99.90;;;;;;5007067;28;21128;-67
2022/05/14 07:11:59;;;;;;;22.00;15.60;;;13.90;99.90;;;;;;5006953;28;20474;-67
2022/05/14 07:14:27;;;;;;;18.17;16.40;;;13.90;99.90;;;;;;5006591;28;20468;-68
2022/05/14 07:16:55;;;;;;;20.97;15.90;;;14.00;99.90;;;;;;5006567;28;20476;-68
2022/05/14 07:19:23;;;;;;;17.47;15.57;;;14.30;99.90;;;;;;5006561;28;20944;-67
2022/05/14 07:21:51;;;;;;;18.60;17.00;;;14.40;99.90;;;;;;5005393;28;20827;-68
2022/05/14 07:24:22;;;;;;;21.90;17.23;;;14.40;99.90;;;;;;5004593;28;21153;-67
2022/05/14 07:26:51;;;;;;;19.57;17.53;;;14.40;99.90;;;;;;5004708;28;20471;-68
2022/05/14 07:29:21;;;;;;;19.33;17.33;;;14.40;99.90;;;;;;5005216;28;21285;-68
2022/05/14 07:31:48;;;;;;;16.97;15.27;;;14.50;99.90;;;;;;5004814;28;20468;-66
2022/05/14 07:34:15;;;;;;;18.00;16.20;;;14.70;99.90;;;;;;5020830;28;20469;-67
2022/05/14 07:36:47;;;;;;;18.90;16.90;;;14.90;99.90;;;;;;5040323;28;20460;-68
2022/05/14 07:39:15;;;;;;;23.03;17.50;;;14.70;99.90;;;;;;5030590;28;20471;-68
2022/05/14 07:41:48;;;;;;;18.60;16.07;;;14.80;99.90;;;;;;5036130;28;20492;-68
2022/05/14 07:44:16;;;;;;;22.27;17.07;;;14.90;99.90;;;;;;5010518;28;20861;-67
2022/05/14 07:46:46;;;;;;;18.33;16.50;;;15.10;99.90;;;;;;5005745;28;20501;-68
2022/05/14 07:49:14;;;;;;;23.13;17.57;;;15.20;99.90;;;;;;5005774;28;20457;-68
2022/05/14 07:51:41;;;;;;;18.73;15.40;;;15.30;99.90;;;;;;5005778;28;20945;-67
2022/05/14 07:54:09;;;;;;;18.33;16.73;;;15.40;99.90;;;;;;5013011;28;20463;-67
2022/05/14 07:56:38;;;;;;;17.77;16.17;;;15.50;99.90;;;;;;5038308;28;20460;-67
2022/05/14 07:59:06;;;;;;;18.10;16.50;;;15.50;99.90;;;;;;4997454;28;20593;-67
2022/05/14 08:01:33;;;;;;;25.77;16.73;;;15.60;99.90;;;;;;4997260;28;20499;-67
2022/05/14 08:04:00;;;;;;;22.37;16.80;;;15.80;99.90;;;;;;5001412;28;20507;-67
2022/05/14 08:06:27;;;;;;;22.30;16.90;;;15.70;99.90;;;;;;5000409;28;22755;-67
2022/05/14 08:08:55;;;;;;;19.10;17.33;;;15.80;99.90;;;;;;5001117;28;20468;-68
2022/05/14 08:11:23;;;;;;;19.27;17.23;;;15.90;99.90;;;;;;5001355;28;21252;-67
2022/05/14 08:13:54;;;;;;;21.47;16.87;;;16.10;99.90;;;;;;4999231;28;20502;-67
2022/05/14 08:16:23;;;;;;;19.63;17.50;;;16.10;99.90;;;;;;4999549;28;20936;-67
2022/05/14 08:18:50;;;;;;;17.83;16.03;;;16.40;99.90;;;;;;4998730;28;20555;-67
2022/05/14 08:26:50;;;;;;;20.27;15.80;;;18.00;99.90;;;;;;5000772;28;21441;-67
2022/05/14 08:29:17;;;;;;;18.13;16.10;;;18.50;99.90;;;;;;5001214;28;20569;-68
2022/05/14 08:31:45;;;;;;;18.83;16.93;;;19.50;99.90;;;;;;5000782;28;20461;-67
2022/05/14 08:34:12;;;;;;;19.20;16.80;;;20.20;99.90;;;;;;4999791;28;21127;-67
2022/05/14 08:36:39;;;;;;;18.90;16.30;;;20.10;99.90;;;;;;5001374;28;20491;-67
2022/05/14 08:39:06;;;;;;;21.10;16.97;;;20.30;99.90;;;;;;4999116;28;20468;-67
2022/05/14 08:41:37;;;;;;;19.63;16.23;;;20.70;99.90;;;;;;5000565;28;20686;-67
2022/05/14 08:44:09;;;;;;;18.30;16.23;;;20.90;99.90;;;;;;5000392;28;21014;-67
2022/05/14 08:46:39;;;;;;;20.17;17.30;;;21.10;99.90;;;;;;5000209;28;20484;-67
2022/05/14 08:49:09;;;;;;;23.73;16.70;;;20.20;99.90;;;;;;4999859;28;20467;-67
2022/05/14 08:51:41;;;;;;;29.80;16.77;;;21.10;99.90;;;;;;4998447;28;20920;-67
2022/05/14 08:54:08;;;;;;;18.67;16.50;;;21.30;99.90;;;;;;4999060;28;20464;-67
2022/05/14 08:56:42;;;;;;;22.50;16.93;;;21.80;99.90;;;;;;5000050;28;21804;-67
2022/05/14 08:59:29;;;;;;;18.73;16.10;;;21.70;99.90;;;;;;4998258;28;20795;-68
2022/05/14 09:02:02;;;;;;;18.20;16.13;;;21.50;99.90;;;;;;4998820;28;20514;-67
2022/05/14 09:04:30;;;;;;;16.47;14.97;;;22.00;99.90;;;;;;4998558;28;20468;-67
2022/05/14 09:06:57;;;;;;;23.50;15.40;;;22.20;99.90;;;;;;4998291;28;20495;-67
2022/05/14 09:09:24;;;;;;;18.23;16.30;;;22.30;99.90;;;;;;4999376;28;20823;-67
2022/05/14 09:11:57;;;;;;;20.90;17.33;;;22.40;99.90;;;;;;4999643;28;20625;-67
2022/05/14 09:14:30;;;;;;;17.80;16.30;;;23.30;99.90;;;;;;4998173;28;20472;-68
2022/05/14 09:17:04;;;;;;;17.13;15.60;;;23.70;99.90;;;;;;4998387;28;20469;-67
2022/05/14 09:19:37;;;;;;;18.67;16.67;;;23.70;99.90;;;;;;4999000;28;20479;-66
2022/05/14 09:22:17;;;;;;;17.23;15.33;;;23.60;99.90;;;;;;5000210;28;20500;-68
2022/05/14 09:24:50;;;;;;;28.00;16.87;;;23.80;99.90;;;;;;5002933;28;20479;-67
2022/05/14 09:27:24;;;;;;;18.30;15.77;;;23.90;99.90;;;;;;5004515;28;20518;-68
2022/05/14 09:29:55;;;;;;;19.30;15.70;;;24.10;99.90;;;;;;5004372;28;20490;-67
2022/05/14 09:32:31;;;;;;;18.40;15.83;;;23.70;99.90;;;;;;5004863;28;20472;-67
2022/05/14 09:35:10;;;;;;;18.20;16.50;;;23.80;99.90;;;;;;5024793;28;20463;-68
2022/05/14 09:37:38;;;;;;;17.57;15.97;;;24.10;98.90;;;;;;5032022;28;20463;-67
2022/05/14 09:40:11;;;;;;;17.23;15.43;;;24.10;99.10;;;;;;5030932;28;20958;-69
2022/05/14 09:42:43;;;;;;;17.23;15.67;;;24.30;98.70;;;;;;5030246;28;20912;-69
2022/05/14 09:45:22;;;;;;;19.50;17.37;;;24.70;98.20;;;;;;5009458;28;20480;-69
2022/05/14 09:47:50;;;;;;;18.20;16.33;;;25.10;97.50;;;;;;5003375;28;20487;-68
2022/05/14 09:50:22;;;;;;;18.07;15.57;;;25.30;96.90;;;;;;5004242;28;20845;-69
2022/05/14 09:52:58;;;;;;;18.20;16.70;;;25.90;95.90;;;;;;5004077;28;20464;-69
2022/05/14 09:55:50;;;;;;;18.10;16.30;;;26.30;94.70;;;;;;5003395;28;20471;-68
2022/05/14 09:58:25;;;;;;;17.40;15.70;;;26.40;94.80;;;;;;5004439;28;21116;-69
2022/05/14 10:00:59;;;;;;;20.10;15.30;;;27.00;93.20;;;;;;5004739;28;20599;-69
2022/05/14 10:03:45;;;;;;;19.00;17.00;;;26.30;93.20;;;;;;5013958;28;20476;-68
2022/05/14 10:06:23;;;;;;;17.30;14.90;;;26.60;92.30;;;;;;5026116;28;20636;-68
2022/05/14 10:09:05;;;;;;;16.07;14.63;;;26.60;91.90;;;;;;5032286;28;20460;-68
2022/05/14 10:11:36;;;;;;;17.00;14.47;;;26.30;91.60;;;;;;5004246;28;20467;-68
2022/05/14 10:14:15;;;;;;;18.20;15.20;;;25.50;92.20;;;;;;5002937;28;20478;-68
2022/05/14 10:16:57;;;;;;;17.17;15.63;;;26.40;91.20;;;;;;5002339;28;21044;-69
2022/05/14 10:19:40;;;;;;;18.87;15.80;;;26.80;90.00;;;;;;5003170;28;20480;-69
2022/05/14 10:22:15;;;;;;;17.77;14.90;;;26.70;90.10;;;;;;5003052;28;20460;-70
2022/05/14 10:27:55;;;;;;;16.87;15.30;;;27.00;87.90;;;;;;5002736;28;20791;-69
2022/05/14 10:30:28;;;;;;;16.33;15.00;;;27.50;87.20;;;;;;5002610;28;20472;-70
2022/05/14 10:33:02;;;;;;;15.53;14.07;;;27.90;86.50;;;;;;5000970;28;20563;-69
2022/05/14 10:35:34;;;;;;;25.20;16.60;;;26.80;88.80;;;;;;5001782;28;20562;-70
2022/05/14 10:38:07;;;;;;;19.80;16.50;;;26.10;87.40;;;;;;5002912;28;20562;-69
2022/05/14 10:40:37;;;;;;;15.47;14.10;;;25.30;89.60;;;;;;5003151;28;20476;-69
2022/05/14 10:43:20;;;;;;;15.60;14.10;;;25.70;89.20;;;;;;5001741;28;20465;-69
2022/05/14 10:45:49;;;;;;;15.87;14.67;;;25.50;86.70;;;;;;5002938;28;20495;-69
2022/05/14 10:48:28;;;;;;;15.70;14.40;;;25.40;88.70;;;;;;5004594;28;20483;-69
2022/05/14 10:50:55;;;;;;;16.07;14.40;;;25.20;87.10;;;;;;5002359;28;20456;-69
2022/05/14 10:53:23;;;;;;;24.03;14.47;;;26.60;88.60;;;;;;5001435;28;20470;-68
2022/05/14 10:55:57;;;;;;;17.47;15.67;;;27.80;82.40;;;;;;5002673;28;20468;-69
2022/05/14 10:58:39;;;;;;;18.27;15.10;;;28.20;77.70;;;;;;5002766;28;20465;-69
2022/05/14 11:01:08;;;;;;;15.73;14.37;;;27.30;78.40;;;;;;5002309;28;20480;-69
2022/05/14 11:03:37;;;;;;;15.47;13.97;;;27.10;79.40;;;;;;5001855;28;20480;-70
2022/05/14 11:06:13;;;;;;;17.20;15.20;;;27.60;78.40;;;;;;5002367;28;21143;-70
2022/05/14 11:08:44;;;;;;;16.07;14.67;;;28.00;76.80;;;;;;5002064;28;20464;-69
2022/05/14 11:11:16;;;;;;;16.60;14.80;;;27.60;79.50;;;;;;5003196;28;20548;-69
2022/05/14 11:13:55;;;;;;;16.37;14.67;;;27.60;80.60;;;;;;5001859;28;20464;-69
2022/05/14 11:16:22;;;;;;;16.70;14.93;;;28.00;76.20;;;;;;5002738;28;20453;-70
2022/05/14 11:18:51;;;;;;;15.97;14.50;;;28.20;74.00;;;;;;5002397;28;21314;-70
2022/05/14 11:21:19;;;;;;;15.80;14.60;;;28.90;73.00;;;;;;5002460;28;20535;-70
2022/05/14 11:23:59;;;;;;;15.53;14.00;;;29.50;69.60;;;;;;5001452;28;20475;-70
2022/05/14 11:26:26;;;;;;;16.83;15.47;;;29.00;72.00;;;;;;5001765;28;20503;-69
2022/05/14 11:28:59;;;;;;;17.53;15.83;;;27.90;71.50;;;;;;5003122;28;20452;-69
2022/05/14 11:31:29;;;;;;;16.10;14.60;;;28.50;72.70;;;;;;5002873;28;20841;-70
2022/05/14 11:34:00;;;;;;;16.10;14.40;;;28.60;70.70;;;;;;5000414;28;20833;-69
2022/05/14 11:36:29;;;;;;;19.53;15.20;;;28.90;68.10;;;;;;5002124;28;20583;-69
2022/05/14 11:39:24;;;;;;;17.13;15.40;;;29.80;67.60;;;;;;5002155;28;20499;-70
2022/05/14 11:41:53;;;;;;;15.27;13.97;;;30.40;65.20;;;;;;5001596;28;20473;-70
2022/05/14 11:44:33;;;;;;;16.47;15.17;;;30.40;63.10;;;;;;5000647;28;20476;-70
2022/05/14 11:47:01;;;;;;;19.23;14.83;;;30.80;64.40;;;;;;5002329;28;20771;-70
2022/05/14 11:49:33;;;;;;;16.10;14.60;;;30.10;65.00;;;;;;5008189;28;20928;-69
2022/05/14 11:52:09;;;;;;;14.80;13.60;;;29.70;61.40;;;;;;5029983;28;20459;-70
2022/05/14 11:54:45;;;;;;;15.20;13.90;;;29.60;59.20;;;;;;5017054;28;20452;-70
2022/05/14 11:57:18;;;;;;;14.40;13.33;;;29.90;58.50;;;;;;5001702;28;20460;-70
2022/05/14 11:59:53;;;;;;;15.57;13.97;;;29.70;60.10;;;;;;5001946;28;20475;-70
2022/05/14 12:02:34;;;;;;;17.13;13.63;;;29.80;59.80;;;;;;5001961;28;20496;-69
2022/05/14 12:05:02;;;;;;;15.23;13.63;;;29.40;58.90;;;;;;5001188;28;20484;-70
2022/05/14 12:07:46;;;;;;;14.13;13.03;;;29.00;59.40;;;;;;5001250;28;21121;-70
2022/05/14 12:10:33;;;;;;;14.10;12.80;;;29.80;58.80;;;;;;5001839;28;20471;-69
2022/05/14 12:13:09;;;;;;;15.80;14.20;;;29.80;58.90;;;;;;5000889;28;21221;-70
2022/05/14 12:15:36;;;;;;;17.67;14.60;;;29.70;58.80;;;;;;5002143;28;20834;-70
2022/05/14 12:18:04;;;;;;;14.93;13.70;;;29.70;58.20;;;;;;5001108;28;20559;-69
2022/05/14 12:20:34;;;;;;;13.40;12.50;;;29.40;57.60;;;;;;5000802;28;20514;-69
2022/05/14 12:23:03;;;;;;;14.50;13.50;;;29.90;56.60;;;;;;5000594;28;20571;-70
2022/05/14 12:25:41;;;;;;;15.20;13.83;;;30.20;55.40;;;;;;5000523;28;22721;-70
2022/05/14 12:28:19;;;;;;;14.97;13.80;;;30.70;55.30;;;;;;5000696;28;20460;-70
2022/05/14 12:33:40;;;;;;;14.73;13.30;;;30.20;57.80;;;;;;5001924;28;20474;-69
2022/05/14 12:36:11;;;;;;;15.10;13.80;;;30.50;57.00;;;;;;5001519;28;20460;-70
2022/05/14 12:38:42;;;;;;;16.23;14.50;;;29.50;57.50;;;;;;5001080;28;20459;-70
2022/05/14 12:41:21;;;;;;;15.17;13.60;;;29.70;55.10;;;;;;5000915;28;20480;-70
2022/05/14 12:43:49;;;;;;;15.73;14.13;;;30.50;54.70;;;;;;5000725;28;20460;-70
2022/05/14 12:46:19;;;;;;;14.47;13.30;;;30.40;54.80;;;;;;5000953;28;20489;-70
2022/05/14 12:48:48;;;;;;;14.70;13.40;;;30.30;55.40;;;;;;5001576;28;20522;-70
2022/05/14 12:51:19;;;;;;;15.30;13.80;;;30.50;54.40;;;;;;5000773;28;20472;-70
2022/05/14 12:53:46;;;;;;;15.17;13.67;;;30.20;54.00;;;;;;5000256;28;20468;-70
2022/05/14 12:56:16;;;;;;;14.40;12.93;;;29.80;54.50;;;;;;4998870;28;20465;-70
2022/05/14 12:58:44;;;;;;;14.83;13.43;;;29.60;53.20;;;;;;5003507;28;20464;-70
2022/05/14 13:01:12;;;;;;;17.53;13.00;;;30.10;53.20;;;;;;5004754;28;23198;-70
2022/05/14 13:03:43;;;;;;;17.63;14.60;;;30.50;52.90;;;;;;5003866;28;20924;-70
2022/05/14 13:06:20;;;;;;;15.80;14.33;;;31.80;52.40;;;;;;5003689;28;20606;-70
2022/05/14 13:08:49;;;;;;;15.77;14.27;;;32.20;51.50;;;;;;5004416;28;22362;-68